createdAt,value
2023-02-17T00:02:29.000Z,81.08
2023-02-17T00:05:31.862Z,81.56
2023-02-17T00:08:35.647Z,82.62
2023-02-17T00:11:38.494Z,83.98
2023-02-17T00:14:41.544Z,82.67
2023-02-17T00:17:44.626Z,81.95
2023-02-17T00:20:47.650Z,81.33
2023-02-17T00:23:51.384Z,81.26
2023-02-17T00:26:54.546Z,81.30
2023-02-17T00:29:58.430Z,81.54
2023-02-17T00:33:03.234Z,82.86
2023-02-17T00:36:08.849Z,81.51
2023-02-17T00:39:17.665Z,82.27
2023-02-17T00:42:21.802Z,82.45
2023-02-17T00:45:24.710Z,82.53
2023-02-17T00:48:27.542Z,83.45
2023-02-17T00:51:30.515Z,82.45
2023-02-17T00:54:33.582Z,81.85
2023-02-17T00:57:37.524Z,81.54
2023-02-17T01:00:40.481Z,81.82
2023-02-17T01:03:44.487Z,81.85
2023-02-17T01:06:47.695Z,82.08
2023-02-17T01:09:50.592Z,82.93
2023-02-17T01:12:54.749Z,81.88
2023-02-17T01:15:58.941Z,81.52
2023-02-17T01:19:13.610Z,81.36
2023-02-17T01:22:16.549Z,80.47
2023-02-17T01:25:19.519Z,80.32
2023-02-17T01:28:23.096Z,80.79
2023-02-17T01:31:27.731Z,80.52
2023-02-17T01:34:30.778Z,81.49
2023-02-17T01:37:35.395Z,81.58
2023-02-17T01:40:45.610Z,81.03
2023-02-17T01:44:18.912Z,81.88
2023-02-17T01:47:21.726Z,82.65
2023-02-17T01:50:30.769Z,82.80
2023-02-17T01:53:42.530Z,81.83
2023-02-17T01:56:48.663Z,81.67
2023-02-17T01:59:52.571Z,81.41
2023-02-17T02:02:56.071Z,80.99
2023-02-17T02:06:00.661Z,81.69
2023-02-17T02:09:12.786Z,82.38
2023-02-17T02:12:25.385Z,81.57
2023-02-17T02:15:35.058Z,81.19
2023-02-17T02:18:51.699Z,81.96
2023-02-17T02:22:36.650Z,81.23
2023-02-17T02:25:46.345Z,80.51
2023-02-17T02:29:10.580Z,81.63
2023-02-17T02:32:29.130Z,82.60
2023-02-17T02:35:35.113Z,81.17
2023-02-17T02:38:57.695Z,81.16
2023-02-17T02:42:13.201Z,82.28
2023-02-17T02:45:18.380Z,82.71
2023-02-17T02:48:24.110Z,82.10
2023-02-17T02:51:40.288Z,82.24
2023-02-17T02:55:08.363Z,83.11
2023-02-17T02:58:20.457Z,83.07
2023-02-17T03:01:54.160Z,82.42
2023-02-17T03:05:25.171Z,82.38
2023-02-17T03:08:57.936Z,81.50
2023-02-17T03:12:01.082Z,82.95
2023-02-17T03:15:19.742Z,83.07
2023-02-17T03:18:22.624Z,83.25
2023-02-17T03:21:35.478Z,82.59
2023-02-17T03:24:38.582Z,83.47
2023-02-17T03:27:44.042Z,83.40
2023-02-17T03:30:48.001Z,83.28
2023-02-17T03:33:53.737Z,83.44
2023-02-17T03:36:56.713Z,82.81
2023-02-17T03:39:59.577Z,82.29
2023-02-17T03:43:02.557Z,83.27
2023-02-17T03:46:05.926Z,84.60
2023-02-17T03:49:09.080Z,82.69
2023-02-17T03:52:12.044Z,82.57
2023-02-17T03:55:14.996Z,81.67
2023-02-17T03:58:17.848Z,80.63
2023-02-17T04:01:21.787Z,80.84
2023-02-17T04:04:24.948Z,81.81
2023-02-17T04:07:28.171Z,81.38
2023-02-17T04:10:31.286Z,81.57
2023-02-17T04:13:35.501Z,81.69
2023-02-17T04:16:39.440Z,82.35
2023-02-17T04:19:42.372Z,82.44
2023-02-17T04:22:46.387Z,82.14
2023-02-17T04:25:49.943Z,82.43
2023-02-17T04:28:52.945Z,81.70
2023-02-17T04:31:56.002Z,81.66
2023-02-17T04:34:58.900Z,81.87
2023-02-17T04:38:01.960Z,82.26
2023-02-17T04:41:07.173Z,82.31
2023-02-17T04:44:10.198Z,82.51
2023-02-17T04:47:13.050Z,81.38
2023-02-17T04:50:16.050Z,81.66
2023-02-17T04:53:19.355Z,81.48
2023-02-17T04:56:22.259Z,81.66
2023-02-17T04:59:25.702Z,81.58
2023-02-17T05:02:28.926Z,81.98
2023-02-17T05:05:31.947Z,82.35
2023-02-17T05:08:34.900Z,82.18
2023-02-17T05:11:37.798Z,81.94
2023-02-17T05:14:40.735Z,81.75
2023-02-17T05:17:43.648Z,82.58
2023-02-17T05:20:46.525Z,82.06
2023-02-17T05:23:49.443Z,81.60
2023-02-17T05:26:52.356Z,82.02
2023-02-17T05:29:56.021Z,82.70
2023-02-17T05:33:01.006Z,82.43
2023-02-17T05:36:07.136Z,82.74
2023-02-17T05:39:10.436Z,81.68
2023-02-17T05:42:17.160Z,82.13
2023-02-17T05:45:20.141Z,81.29
2023-02-17T05:48:23.085Z,83.59
2023-02-17T05:51:26.014Z,81.81
2023-02-17T05:54:28.834Z,81.82
2023-02-17T05:57:32.384Z,83.87
2023-02-17T06:00:35.370Z,84.57
2023-02-17T06:03:39.126Z,83.74
2023-02-17T06:06:42.123Z,82.94
2023-02-17T06:09:47.159Z,82.11
2023-02-17T06:12:50.223Z,82.11
2023-02-17T06:15:59.046Z,81.28
2023-02-17T06:19:02.653Z,80.94
2023-02-17T06:22:05.956Z,81.40
2023-02-17T06:25:09.202Z,80.85
2023-02-17T06:28:12.995Z,80.61
2023-02-17T06:31:16.949Z,80.92
2023-02-17T06:34:19.880Z,80.63
2023-02-17T06:37:23.963Z,81.09
2023-02-17T06:40:28.748Z,81.37
2023-02-17T06:43:37.435Z,81.75
2023-02-17T06:46:46.441Z,82.20
2023-02-17T06:49:49.649Z,82.21
2023-02-17T06:52:53.629Z,82.82
2023-02-17T06:55:57.454Z,82.82
2023-02-17T06:59:01.893Z,82.85
2023-02-17T07:02:08.926Z,82.50
2023-02-17T07:05:34.333Z,82.17
2023-02-17T07:08:48.212Z,82.48
2023-02-17T07:11:52.522Z,82.74
2023-02-17T07:14:58.295Z,82.72
2023-02-17T07:18:03.804Z,83.04
2023-02-17T07:21:09.338Z,83.13
2023-02-17T07:24:14.466Z,82.96
2023-02-17T07:27:17.424Z,83.36
2023-02-17T07:30:37.026Z,82.96
2023-02-17T07:33:41.404Z,82.64
2023-02-17T07:36:44.880Z,82.22
2023-02-17T07:39:57.260Z,81.70
2023-02-17T07:43:00.765Z,80.55
2023-02-17T07:46:09.564Z,81.32
2023-02-17T07:53:32.430Z,80.11
2023-02-17T08:00:45.616Z,77.23
2023-02-17T08:03:58.676Z,75.15
2023-02-17T08:07:24.529Z,74.40
2023-02-17T08:10:52.795Z,73.72
2023-02-17T08:14:01.693Z,71.92
2023-02-17T08:17:09.183Z,69.51
2023-02-17T08:20:15.687Z,68.06
2023-02-17T08:23:23.699Z,70.00
2023-02-17T08:29:48.188Z,68.77
2023-02-17T08:32:53.776Z,67.99
2023-02-17T08:36:07.556Z,66.34
2023-02-17T08:39:23.370Z,63.71
2023-02-17T08:42:45.262Z,64.97
2023-02-17T08:50:04.148Z,64.33
2023-02-17T08:53:55.659Z,65.33
2023-02-17T09:08:16.621Z,66.73
2023-02-17T09:11:33.541Z,67.49
2023-02-17T09:14:40.203Z,67.77
2023-02-17T09:17:52.726Z,66.73
2023-02-17T09:21:03.191Z,67.78
2023-02-17T09:24:08.020Z,68.05
2023-02-17T09:27:23.493Z,68.11
2023-02-17T09:30:40.164Z,68.90
2023-02-17T09:34:31.032Z,69.50
2023-02-17T09:37:43.663Z,70.63
2023-02-17T09:40:50.501Z,70.39
2023-02-17T09:43:58.691Z,70.91
2023-02-17T09:47:15.233Z,70.16
2023-02-17T09:50:47.677Z,69.75
2023-02-17T09:54:23.822Z,70.08
2023-02-17T09:57:39.636Z,69.98
2023-02-17T10:00:47.262Z,68.72
2023-02-17T10:03:56.377Z,68.97
2023-02-17T10:07:08.148Z,68.87
2023-02-17T10:10:47.830Z,67.48
2023-02-17T10:13:57.565Z,67.26
2023-02-17T10:17:11.593Z,66.93
2023-02-17T10:20:31.780Z,67.05
2023-02-17T10:23:35.428Z,66.35
2023-02-17T10:26:51.142Z,65.41
2023-02-17T10:30:14.668Z,66.08
2023-02-17T10:33:45.100Z,63.53
2023-02-17T10:37:02.189Z,64.35
2023-02-17T10:40:23.007Z,62.66
2023-02-17T10:43:38.131Z,62.70
2023-02-17T10:46:43.425Z,60.97
2023-02-17T10:49:58.464Z,61.80
2023-02-17T10:53:02.015Z,61.72
2023-02-17T10:56:23.005Z,61.21
2023-02-17T10:59:33.673Z,60.50
2023-02-17T11:02:41.471Z,61.55
2023-02-17T11:05:44.435Z,57.37
2023-02-17T11:09:02.217Z,58.79
2023-02-17T11:12:25.025Z,55.89
2023-02-17T11:15:38.079Z,55.78
2023-02-17T11:18:49.407Z,54.57
2023-02-17T11:21:54.825Z,53.31
2023-02-17T11:25:00.403Z,52.49
2023-02-17T11:28:24.981Z,52.17
2023-02-17T11:31:38.067Z,52.42
2023-02-17T11:34:47.228Z,53.43
2023-02-17T11:38:01.465Z,52.96
2023-02-17T11:41:07.711Z,51.62
2023-02-17T11:44:29.456Z,51.50
2023-02-17T11:47:53.781Z,52.68
2023-02-17T11:51:27.387Z,51.99
2023-02-17T11:54:49.171Z,52.38
2023-02-17T11:58:02.044Z,51.74
2023-02-17T12:01:42.439Z,50.90
2023-02-17T12:04:50.995Z,50.77
2023-02-17T12:08:31.660Z,51.07
2023-02-17T12:11:52.635Z,51.46
2023-02-17T12:15:28.630Z,51.06
2023-02-17T12:18:44.334Z,49.79
2023-02-17T12:22:19.575Z,48.97
2023-02-17T12:25:38.466Z,49.40
2023-02-17T12:29:08.503Z,49.08
2023-02-17T12:32:55.420Z,48.57
2023-02-17T12:36:08.281Z,49.35
2023-02-17T12:39:30.857Z,50.60
2023-02-17T12:43:03.358Z,49.89
2023-02-17T12:46:17.163Z,49.49
2023-02-17T12:50:01.839Z,50.02
2023-02-17T12:53:49.965Z,49.77
2023-02-17T12:56:59.754Z,48.92
2023-02-17T13:00:20.957Z,49.35
2023-02-17T13:03:25.174Z,49.32
2023-02-17T13:06:39.850Z,48.70
2023-02-17T13:09:46.842Z,48.83
2023-02-17T13:13:30.487Z,49.27
2023-02-17T13:16:43.465Z,49.88
2023-02-17T13:20:02.723Z,51.77
2023-02-17T13:23:11.301Z,53.80
2023-02-17T13:26:25.919Z,55.10
2023-02-17T13:29:35.844Z,56.53
2023-02-17T13:32:39.508Z,56.90
2023-02-17T13:35:43.662Z,56.67
2023-02-17T13:39:08.537Z,57.64
2023-02-17T13:42:38.144Z,56.39
2023-02-17T13:45:47.082Z,55.18
2023-02-17T13:49:05.589Z,55.07
2023-02-17T13:52:22.393Z,55.00
2023-02-17T13:55:26.052Z,53.90
2023-02-17T13:58:32.284Z,54.03
2023-02-17T14:01:44.071Z,52.92
2023-02-17T14:04:50.408Z,50.86
2023-02-17T14:08:03.491Z,51.40
2023-02-17T14:11:13.251Z,51.61
2023-02-17T14:14:17.592Z,50.17
2023-02-17T14:17:33.143Z,49.87
2023-02-17T14:20:36.609Z,49.66
2023-02-17T14:23:55.047Z,50.24
2023-02-17T14:27:04.269Z,50.08
2023-02-17T14:30:12.766Z,49.88
2023-02-17T14:33:17.091Z,50.12
2023-02-17T14:36:37.148Z,49.40
2023-02-17T14:39:40.284Z,49.19
2023-02-17T14:42:44.597Z,49.06
2023-02-17T14:45:48.378Z,49.42
2023-02-17T14:48:53.322Z,48.91
2023-02-17T14:51:57.069Z,49.17
2023-02-17T14:55:00.377Z,49.88
2023-02-17T14:58:03.910Z,48.78
2023-02-17T15:01:07.198Z,48.57
2023-02-17T15:04:10.322Z,48.57
2023-02-17T15:07:17.048Z,48.80
2023-02-17T15:10:28.259Z,49.32
2023-02-17T15:13:32.341Z,48.78
2023-02-17T15:16:35.918Z,51.29
2023-02-17T15:19:39.091Z,54.01
2023-02-17T15:22:44.407Z,53.41
2023-02-17T15:25:48.504Z,51.03
2023-02-17T15:28:51.832Z,50.25
2023-02-17T15:32:02.026Z,49.07
2023-02-17T15:35:18.699Z,49.40
2023-02-17T15:38:27.265Z,48.84
2023-02-17T15:41:31.619Z,48.67
2023-02-17T15:44:45.146Z,48.99
2023-02-17T15:47:50.600Z,49.25
2023-02-17T15:50:54.483Z,49.04
2023-02-17T15:54:01.855Z,48.90
2023-02-17T15:57:07.795Z,49.89
2023-02-17T16:00:23.534Z,49.82
2023-02-17T16:03:26.662Z,50.36
2023-02-17T16:06:30.363Z,50.82
2023-02-17T16:09:33.583Z,50.91
2023-02-17T16:12:36.942Z,51.61
2023-02-17T16:15:40.272Z,52.18
2023-02-17T16:18:43.501Z,51.79
2023-02-17T16:21:48.011Z,52.46
2023-02-17T16:24:51.218Z,52.61
2023-02-17T16:27:55.182Z,53.06
2023-02-17T16:30:58.684Z,52.71
2023-02-17T16:34:04.474Z,52.54
2023-02-17T16:37:16.657Z,53.25
2023-02-17T16:40:24.051Z,53.92
2023-02-17T16:43:27.965Z,53.15
2023-02-17T16:46:35.633Z,52.76
2023-02-17T16:49:42.098Z,53.35
2023-02-17T16:52:45.878Z,53.39
2023-02-17T16:55:50.819Z,53.31
2023-02-17T16:58:54.049Z,54.00
2023-02-17T17:01:58.199Z,53.31
2023-02-17T17:05:01.760Z,53.13
2023-02-17T17:08:06.984Z,53.30
2023-02-17T17:11:20.313Z,53.17
2023-02-17T17:14:24.877Z,53.29
2023-02-17T17:17:32.181Z,53.54
2023-02-17T17:20:40.829Z,54.00
2023-02-17T17:23:52.962Z,53.97
2023-02-17T17:27:02.292Z,54.08
2023-02-17T17:30:07.930Z,53.95
2023-02-17T17:33:16.437Z,54.22
2023-02-17T17:36:26.793Z,53.77
2023-02-17T17:39:30.067Z,53.46
2023-02-17T17:42:37.739Z,53.32
2023-02-17T17:45:41.072Z,53.60
2023-02-17T17:48:44.833Z,53.67
2023-02-17T17:51:48.796Z,53.55
2023-02-17T17:54:52.087Z,54.33
2023-02-17T17:57:59.307Z,54.00
2023-02-17T18:01:12.940Z,53.06
2023-02-17T18:04:19.628Z,53.59
2023-02-17T18:07:23.724Z,53.05
2023-02-17T18:10:26.776Z,52.38
2023-02-17T18:13:30.309Z,52.36
2023-02-17T18:16:34.682Z,51.80
2023-02-17T18:19:39.828Z,51.88
2023-02-17T18:22:45.800Z,51.60
2023-02-17T18:25:49.416Z,51.36
2023-02-17T18:28:53.829Z,50.97
2023-02-17T18:31:59.246Z,51.54
2023-02-17T18:35:03.896Z,50.88
2023-02-17T18:38:15.016Z,50.68
2023-02-17T18:41:30.345Z,50.62
2023-02-17T18:44:36.261Z,50.71
2023-02-17T18:47:39.851Z,50.49
2023-02-17T18:50:44.294Z,50.66
2023-02-17T18:53:51.272Z,49.97
2023-02-17T18:56:54.740Z,50.48
2023-02-17T19:00:01.665Z,50.18
2023-02-17T19:03:06.080Z,50.74
2023-02-17T19:06:17.332Z,50.90
2023-02-17T19:09:20.577Z,50.27
2023-02-17T19:12:26.823Z,50.33
2023-02-17T19:15:30.223Z,50.06
2023-02-17T19:18:33.614Z,50.10
2023-02-17T19:21:36.931Z,50.37
2023-02-17T19:24:41.809Z,49.96
2023-02-17T19:27:44.988Z,49.83
2023-02-17T19:30:48.912Z,50.85
2023-02-17T19:33:52.007Z,50.58
2023-02-17T19:36:55.992Z,50.72
2023-02-17T19:40:02.160Z,50.62
2023-02-17T19:43:05.615Z,51.20
2023-02-17T19:46:13.167Z,51.22
2023-02-17T19:49:16.574Z,51.18
2023-02-17T19:52:21.158Z,51.47
2023-02-17T19:55:25.265Z,51.76
2023-02-17T19:58:28.296Z,51.19
2023-02-17T20:01:33.756Z,50.70
2023-02-17T20:04:36.945Z,51.75
2023-02-17T20:07:40.251Z,51.22
2023-02-17T20:10:43.615Z,51.79
2023-02-17T20:13:47.406Z,51.41
2023-02-17T20:16:53.351Z,51.14
2023-02-17T20:19:56.586Z,51.40
2023-02-17T20:22:59.868Z,51.43
2023-02-17T20:26:11.780Z,51.68
2023-02-17T20:29:15.118Z,52.15
2023-02-17T20:32:18.717Z,51.83
2023-02-17T20:35:22.076Z,51.46
2023-02-17T20:38:25.587Z,52.30
2023-02-17T20:41:29.421Z,51.16
2023-02-17T20:44:32.712Z,51.00
2023-02-17T20:47:37.970Z,51.25
2023-02-17T20:50:41.846Z,51.13
2023-02-17T20:53:44.974Z,51.19
2023-02-17T20:56:48.662Z,51.39
2023-02-17T20:59:51.866Z,51.32
2023-02-17T21:02:57.537Z,51.14
2023-02-17T21:06:06.944Z,51.10
2023-02-17T21:09:16.855Z,51.84
2023-02-17T21:12:21.525Z,52.13
2023-02-17T21:15:24.910Z,51.30
2023-02-17T21:18:28.442Z,51.17
2023-02-17T21:21:31.843Z,51.88
2023-02-17T21:24:34.939Z,51.23
2023-02-17T21:27:38.055Z,50.59
2023-02-17T21:30:41.171Z,50.93
2023-02-17T21:33:44.619Z,51.70
2023-02-17T21:36:47.756Z,51.83
2023-02-17T21:39:50.736Z,51.97
2023-02-17T21:43:12.367Z,51.44
2023-02-17T21:46:15.531Z,51.80
2023-02-17T21:49:18.713Z,51.14
2023-02-17T21:52:22.339Z,51.27
2023-02-17T21:55:26.492Z,50.98
2023-02-17T21:58:29.781Z,50.93
2023-02-17T22:01:32.834Z,50.72
2023-02-17T22:04:35.858Z,50.87
2023-02-17T22:07:39.037Z,51.88
2023-02-17T22:10:43.163Z,51.85
2023-02-17T22:13:46.407Z,52.83
2023-02-17T22:16:49.853Z,52.49
2023-02-17T22:19:53.148Z,52.42
2023-02-17T22:22:56.102Z,52.30
2023-02-17T22:25:59.065Z,52.69
2023-02-17T22:29:02.088Z,53.32
2023-02-17T22:32:05.371Z,53.31
2023-02-17T22:35:08.749Z,53.80
2023-02-17T22:38:11.723Z,53.42
2023-02-17T22:41:17.693Z,54.08
2023-02-17T22:44:20.650Z,53.60
2023-02-17T22:47:23.594Z,54.36
2023-02-17T22:50:26.485Z,55.18
2023-02-17T22:53:29.322Z,55.04
2023-02-17T22:56:32.513Z,56.17
2023-02-17T22:59:35.894Z,57.20
2023-02-17T23:02:38.967Z,57.72
2023-02-17T23:05:43.156Z,58.01
2023-02-17T23:08:49.696Z,58.15
2023-02-17T23:11:57.637Z,58.56
2023-02-17T23:15:00.995Z,58.71
2023-02-17T23:18:03.938Z,58.38
2023-02-17T23:21:12.846Z,58.51
2023-02-17T23:24:16.929Z,58.39
2023-02-17T23:27:19.993Z,59.14
2023-02-17T23:30:23.451Z,58.87
2023-02-17T23:33:26.375Z,59.65
2023-02-17T23:36:29.193Z,61.61
2023-02-17T23:39:32.158Z,63.69
2023-02-17T23:42:36.908Z,62.76
2023-02-17T23:45:39.809Z,63.12
2023-02-17T23:48:42.829Z,64.23
2023-02-17T23:51:47.004Z,64.87
2023-02-17T23:54:51.309Z,64.44
2023-02-17T23:57:54.190Z,64.38
